Terminal Aerodrome Forecast
Issued by NWS

Home | Current Version | Previous Version | Text Only | Print | Product List | Glossary On
Versions: 1 2 3 4 5 6 7 8 9 10 11 12 13 14 15
000
FTUS45 KFGZ 301100
TAFSEZ
TAF
KSEZ 301138Z 3012/3112 07008KT 6SM -RA BR OVC035
     FM301500 11008KT 3SM -RA BR SCT010 OVC020
      TEMPO 3015/3019 OVC010=

USA.gov is the U.S. government's official web portal to all federal, state and local government web resources and services.